Time,TemperatureF,DewpointF,PressureIn,WindDirection,WindDirectionDegrees,WindSpeedMPH,WindSpeedGustMPH,Humidity,HourlyPrecipIn,Conditions,Clouds,dailyrainin,SolarRadiationWatts/m^2,SoftwareType,DateUTC
2013-08-21 00:01:00,70.6,69.4,30.05,SE,142,0.0,0.0,96,0.00,,,0.26,0,Wunderground v.1.15,2013-08-21 05:01:00,
2013-08-21 00:06:00,70.4,69.2,30.05,SE,142,0.0,0.0,96,0.00,,,0.00,0,Wunderground v.1.15,2013-08-21 05:06:00,
2013-08-21 00:11:00,70.4,69.2,30.05,SE,142,0.0,1.0,96,0.00,,,0.00,0,Wunderground v.1.15,2013-08-21 05:11:00,
2013-08-21 00:16:00,70.4,69.5,30.05,SE,142,0.0,1.0,97,0.00,,,0.00,0,Wunderground v.1.15,2013-08-21 05:16:00,
2013-08-21 00:21:00,70.4,69.5,30.05,SE,142,0.0,0.0,97,0.00,,,0.00,0,Wunderground v.1.15,2013-08-21 05:21:00,
2013-08-21 00:25:00,70.4,69.5,30.05,SE,142,1.0,2.0,97,0.00,,,0.00,0,Wunderground v.1.15,2013-08-21 05:25:00,
2013-08-21 00:31:00,70.3,69.4,30.05,SE,142,1.0,1.0,97,0.00,,,0.00,0,Wunderground v.1.15,2013-08-21 05:31:00,
2013-08-21 00:35:00,70.2,69.3,30.05,SE,142,0.0,1.0,97,0.00,,,0.00,0,Wunderground v.1.15,2013-08-21 05:35:00,
2013-08-21 00:40:00,70.2,69.0,30.06,SE,142,0.0,0.0,96,0.00,,,0.00,0,Wunderground v.1.15,2013-08-21 05:40:00,
2013-08-21 00:45:00,70.2,69.3,30.06,SE,142,1.0,1.0,97,0.00,,,0.00,0,Wunderground v.1.15,2013-08-21 05:45:00,
2013-08-21 00:50:00,70.2,69.3,30.05,SE,142,0.0,0.0,97,0.00,,,0.00,0,Wunderground v.1.15,2013-08-21 05:50:00,
2013-08-21 00:55:00,70.3,69.4,30.05,SE,142,0.0,2.0,97,0.00,,,0.00,0,Wunderground v.1.15,2013-08-21 05:55:00,
2013-08-21 01:00:00,70.3,69.4,30.05,SE,142,0.0,0.0,97,0.00,,,0.00,0,Wunderground v.1.15,2013-08-21 06:00:00,
2013-08-21 01:05:00,70.3,69.4,30.05,SE,142,0.0,0.0,97,0.00,,,0.00,0,Wunderground v.1.15,2013-08-21 06:05:00,
2013-08-21 01:10:00,70.2,69.0,30.05,SE,142,0.0,0.0,96,0.00,,,0.00,0,Wunderground v.1.15,2013-08-21 06:10:00,
2013-08-21 01:15:00,70.1,68.9,30.05,SE,142,0.0,0.0,96,0.00,,,0.00,0,Wunderground v.1.15,2013-08-21 06:15:00,
2013-08-21 01:20:00,70.1,68.9,30.05,SE,142,0.0,0.0,96,0.00,,,0.00,0,Wunderground v.1.15,2013-08-21 06:20:00,
2013-08-21 01:25:00,70.1,68.9,30.05,SE,142,0.0,0.0,96,0.00,,,0.00,0,Wunderground v.1.15,2013-08-21 06:25:00,
2013-08-21 01:30:00,70.0,68.8,30.05,SE,142,0.0,0.0,96,0.00,,,0.00,0,Wunderground v.1.15,2013-08-21 06:30:00,
2013-08-21 01:35:00,69.9,68.7,30.05,SE,142,0.0,0.0,96,0.00,,,0.00,0,Wunderground v.1.15,2013-08-21 06:35:00,
2013-08-21 01:40:00,69.8,68.6,30.05,SE,142,0.0,0.0,96,0.00,,,0.00,0,Wunderground v.1.15,2013-08-21 06:40:00,
2013-08-21 01:45:00,69.7,68.5,30.05,SE,142,0.0,0.0,96,0.00,,,0.00,0,Wunderground v.1.15,2013-08-21 06:45:00,
2013-08-21 01:50:00,69.5,68.3,30.05,SE,142,0.0,0.0,96,0.00,,,0.00,0,Wunderground v.1.15,2013-08-21 06:50:00,
2013-08-21 01:55:00,69.4,68.2,30.05,SE,142,0.0,0.0,96,0.00,,,0.00,0,Wunderground v.1.15,2013-08-21 06:55:00,
2013-08-21 02:00:00,69.4,68.2,30.05,SE,142,0.0,0.0,96,0.00,,,0.00,0,Wunderground v.1.15,2013-08-21 07:00:00,
2013-08-21 02:05:00,69.3,68.4,30.05,SE,142,0.0,0.0,97,0.00,,,0.00,0,Wunderground v.1.15,2013-08-21 07:05:00,
2013-08-21 02:10:00,69.3,68.4,30.05,SE,142,0.0,0.0,97,0.00,,,0.00,0,Wunderground v.1.15,2013-08-21 07:10:00,
2013-08-21 02:15:00,69.2,68.0,30.05,SE,142,0.0,0.0,96,0.00,,,0.00,0,Wunderground v.1.15,2013-08-21 07:15:00,
2013-08-21 02:20:00,68.9,67.7,30.05,SE,142,0.0,0.0,96,0.00,,,0.00,0,Wunderground v.1.15,2013-08-21 07:20:00,
2013-08-21 02:25:00,68.9,67.7,30.05,SE,142,0.0,0.0,96,0.00,,,0.00,0,Wunderground v.1.15,2013-08-21 07:25:00,
2013-08-21 02:30:00,68.8,67.6,30.05,SE,142,0.0,0.0,96,0.00,,,0.00,0,Wunderground v.1.15,2013-08-21 07:30:00,
2013-08-21 02:35:00,68.8,67.9,30.04,SE,142,0.0,0.0,97,0.00,,,0.00,0,Wunderground v.1.15,2013-08-21 07:35:00,
2013-08-21 02:40:00,68.7,67.8,30.04,SE,142,0.0,0.0,97,0.00,,,0.00,0,Wunderground v.1.15,2013-08-21 07:40:00,
2013-08-21 02:45:00,68.7,67.8,30.04,SE,142,0.0,0.0,97,0.00,,,0.00,0,Wunderground v.1.15,2013-08-21 07:45:00,
2013-08-21 02:50:00,68.6,67.7,30.04,SE,142,0.0,0.0,97,0.00,,,0.00,0,Wunderground v.1.15,2013-08-21 07:50:00,
2013-08-21 02:55:00,68.6,67.7,30.04,SE,142,0.0,0.0,97,0.00,,,0.00,0,Wunderground v.1.15,2013-08-21 07:55:00,
2013-08-21 03:00:00,68.5,67.6,30.04,SE,142,0.0,0.0,97,0.00,,,0.00,0,Wunderground v.1.15,2013-08-21 08:00:00,
2013-08-21 03:05:00,68.5,67.6,30.04,SE,142,0.0,0.0,97,0.00,,,0.00,0,Wunderground v.1.15,2013-08-21 08:05:00,
2013-08-21 03:10:00,68.5,67.6,30.04,SE,142,0.0,0.0,97,0.00,,,0.00,0,Wunderground v.1.15,2013-08-21 08:10:00,
2013-08-21 03:15:00,68.3,67.4,30.04,SE,142,0.0,0.0,97,0.00,,,0.00,0,Wunderground v.1.15,2013-08-21 08:15:00,
2013-08-21 03:20:00,68.3,67.4,30.04,SE,142,0.0,0.0,97,0.00,,,0.00,0,Wunderground v.1.15,2013-08-21 08:20:00,
2013-08-21 03:25:00,68.2,67.3,30.04,SE,142,0.0,0.0,97,0.00,,,0.00,0,Wunderground v.1.15,2013-08-21 08:25:00,
2013-08-21 03:30:00,68.1,67.2,30.04,SE,142,0.0,0.0,97,0.00,,,0.00,0,Wunderground v.1.15,2013-08-21 08:30:00,
2013-08-21 03:35:00,68.1,67.2,30.03,SE,142,0.0,0.0,97,0.00,,,0.00,0,Wunderground v.1.15,2013-08-21 08:35:00,
2013-08-21 03:40:00,68.0,67.1,30.04,SE,142,0.0,0.0,97,0.00,,,0.00,0,Wunderground v.1.15,2013-08-21 08:40:00,
2013-08-21 03:45:00,67.9,67.0,30.04,SE,142,0.0,0.0,97,0.00,,,0.00,0,Wunderground v.1.15,2013-08-21 08:45:00,
2013-08-21 03:50:00,67.8,66.9,30.04,SE,142,0.0,0.0,97,0.00,,,0.00,0,Wunderground v.1.15,2013-08-21 08:50:00,
2013-08-21 03:55:00,67.8,66.9,30.04,SE,142,0.0,0.0,97,0.00,,,0.00,0,Wunderground v.1.15,2013-08-21 08:55:00,
2013-08-21 04:00:00,67.8,66.9,30.04,SE,142,0.0,0.0,97,0.00,,,0.00,0,Wunderground v.1.15,2013-08-21 09:00:00,
2013-08-21 04:05:00,67.8,66.9,30.04,SE,142,0.0,0.0,97,0.00,,,0.00,0,Wunderground v.1.15,2013-08-21 09:05:00,
2013-08-21 04:10:00,67.8,66.9,30.04,SE,142,0.0,0.0,97,0.00,,,0.00,0,Wunderground v.1.15,2013-08-21 09:10:00,
2013-08-21 04:15:00,67.9,67.3,30.04,SE,142,0.0,0.0,98,0.00,,,0.00,0,Wunderground v.1.15,2013-08-21 09:15:00,
2013-08-21 04:20:00,67.8,66.9,30.04,SE,142,0.0,0.0,97,0.00,,,0.00,0,Wunderground v.1.15,2013-08-21 09:20:00,
2013-08-21 04:25:00,67.7,66.8,30.04,SE,142,0.0,0.0,97,0.00,,,0.00,0,Wunderground v.1.15,2013-08-21 09:25:00,
2013-08-21 04:30:00,67.6,66.7,30.04,SE,142,0.0,0.0,97,0.00,,,0.00,0,Wunderground v.1.15,2013-08-21 09:30:00,
2013-08-21 04:35:00,67.6,66.7,30.04,SE,142,0.0,0.0,97,0.00,,,0.00,0,Wunderground v.1.15,2013-08-21 09:35:00,
2013-08-21 04:40:00,67.5,66.6,30.05,SE,142,0.0,0.0,97,0.00,,,0.00,0,Wunderground v.1.15,2013-08-21 09:40:00,
2013-08-21 04:46:00,67.4,66.5,30.04,SE,142,0.0,0.0,97,0.00,,,0.00,0,Wunderground v.1.15,2013-08-21 09:46:00,
2013-08-21 04:51:00,67.4,66.5,30.05,SE,142,0.0,0.0,97,0.00,,,0.00,0,Wunderground v.1.15,2013-08-21 09:51:00,
2013-08-21 04:56:00,67.4,66.5,30.05,SE,142,0.0,0.0,97,0.00,,,0.00,0,Wunderground v.1.15,2013-08-21 09:56:00,
2013-08-21 05:01:00,67.4,66.5,30.05,SE,142,0.0,0.0,97,0.00,,,0.00,0,Wunderground v.1.15,2013-08-21 10:01:00,
2013-08-21 05:06:00,67.5,66.9,30.05,SE,142,0.0,0.0,98,0.00,,,0.00,0,Wunderground v.1.15,2013-08-21 10:06:00,
2013-08-21 05:11:00,67.4,66.8,30.05,SE,142,0.0,0.0,98,0.00,,,0.00,0,Wunderground v.1.15,2013-08-21 10:11:00,
2013-08-21 05:16:00,67.3,66.4,30.05,SE,142,0.0,0.0,97,0.00,,,0.00,0,Wunderground v.1.15,2013-08-21 10:16:00,
2013-08-21 05:21:00,67.2,66.3,30.05,SE,142,0.0,0.0,97,0.00,,,0.00,0,Wunderground v.1.15,2013-08-21 10:21:00,
2013-08-21 05:26:00,67.2,66.6,30.05,SE,142,0.0,0.0,98,0.00,,,0.00,0,Wunderground v.1.15,2013-08-21 10:26:00,
2013-08-21 05:31:00,67.3,66.7,30.06,SE,142,0.0,0.0,98,0.00,,,0.00,0,Wunderground v.1.15,2013-08-21 10:31:00,
2013-08-21 05:36:00,67.4,66.8,30.06,SE,142,0.0,0.0,98,0.00,,,0.00,0,Wunderground v.1.15,2013-08-21 10:36:00,
2013-08-21 05:41:00,67.4,66.8,30.06,SE,142,0.0,0.0,98,0.00,,,0.00,0,Wunderground v.1.15,2013-08-21 10:41:00,
2013-08-21 05:46:00,67.4,66.8,30.06,SE,142,0.0,0.0,98,0.00,,,0.00,0,Wunderground v.1.15,2013-08-21 10:46:00,
2013-08-21 05:51:00,67.7,67.1,30.06,SE,142,0.0,0.0,98,0.00,,,0.00,0,Wunderground v.1.15,2013-08-21 10:51:00,
2013-08-21 05:56:00,67.7,67.1,30.06,SE,142,0.0,0.0,98,0.00,,,0.00,0,Wunderground v.1.15,2013-08-21 10:56:00,
2013-08-21 06:01:00,67.8,67.2,30.07,SE,142,0.0,0.0,98,0.00,,,0.00,0,Wunderground v.1.15,2013-08-21 11:01:00,
2013-08-21 06:06:00,67.9,67.3,30.07,SE,142,0.0,0.0,98,0.00,,,0.00,0,Wunderground v.1.15,2013-08-21 11:06:00,
2013-08-21 06:11:00,67.9,67.3,30.07,SE,142,0.0,0.0,98,0.00,,,0.00,0,Wunderground v.1.15,2013-08-21 11:11:00,
2013-08-21 06:16:00,68.1,67.5,30.07,SE,142,0.0,0.0,98,0.00,,,0.00,0,Wunderground v.1.15,2013-08-21 11:16:00,
2013-08-21 06:21:00,68.1,67.5,30.08,SE,142,0.0,0.0,98,0.00,,,0.00,0,Wunderground v.1.15,2013-08-21 11:21:00,
2013-08-21 06:26:00,67.9,67.3,30.08,SE,142,0.0,0.0,98,0.00,,,0.00,5,Wunderground v.1.15,2013-08-21 11:26:00,
2013-08-21 06:31:00,67.9,67.3,30.08,SE,142,0.0,0.0,98,0.00,,,0.00,7,Wunderground v.1.15,2013-08-21 11:31:00,
2013-08-21 06:36:00,67.8,67.2,30.08,SE,142,0.0,0.0,98,0.00,,,0.00,9,Wunderground v.1.15,2013-08-21 11:36:00,
2013-08-21 06:41:00,67.8,67.2,30.08,SE,142,0.0,0.0,98,0.00,,,0.00,12,Wunderground v.1.15,2013-08-21 11:41:00,
2013-08-21 06:46:00,67.8,67.2,30.08,SE,142,0.0,0.0,98,0.00,,,0.00,14,Wunderground v.1.15,2013-08-21 11:46:00,
2013-08-21 06:51:00,67.8,67.2,30.09,SE,142,0.0,0.0,98,0.00,,,0.00,18,Wunderground v.1.15,2013-08-21 11:51:00,
2013-08-21 06:56:00,67.9,67.3,30.08,SE,142,0.0,1.0,98,0.00,,,0.00,19,Wunderground v.1.15,2013-08-21 11:56:00,
2013-08-21 07:01:00,68.0,67.4,30.09,SE,142,0.0,0.0,98,0.00,,,0.00,21,Wunderground v.1.15,2013-08-21 12:01:00,
2013-08-21 07:06:00,68.1,67.5,30.09,SE,142,0.0,0.0,98,0.00,,,0.00,23,Wunderground v.1.15,2013-08-21 12:06:00,
2013-08-21 07:11:00,68.3,67.7,30.09,SE,142,0.0,0.0,98,0.00,,,0.00,25,Wunderground v.1.15,2013-08-21 12:11:00,
2013-08-21 07:16:00,68.5,67.9,30.09,SE,142,0.0,0.0,98,0.00,,,0.00,26,Wunderground v.1.15,2013-08-21 12:16:00,
2013-08-21 07:21:00,68.7,68.1,30.09,SE,142,0.0,0.0,98,0.00,,,0.00,28,Wunderground v.1.15,2013-08-21 12:21:00,
2013-08-21 07:26:00,69.2,68.6,30.09,SE,142,0.0,0.0,98,0.00,,,0.00,30,Wunderground v.1.15,2013-08-21 12:26:00,
2013-08-21 07:31:00,69.6,69.0,30.09,SE,142,0.0,0.0,98,0.00,,,0.00,32,Wunderground v.1.15,2013-08-21 12:31:00,
2013-08-21 07:36:00,70.0,69.7,30.10,SE,142,0.0,1.0,99,0.00,,,0.00,33,Wunderground v.1.15,2013-08-21 12:36:00,
2013-08-21 07:41:00,70.5,70.2,30.10,SE,142,0.0,0.0,99,0.00,,,0.00,35,Wunderground v.1.15,2013-08-21 12:41:00,
2013-08-21 07:46:00,70.9,70.6,30.10,SE,142,0.0,1.0,99,0.00,,,0.00,37,Wunderground v.1.15,2013-08-21 12:46:00,
2013-08-21 07:51:00,71.1,70.8,30.10,SSE,156,1.0,1.0,99,0.00,,,0.00,39,Wunderground v.1.15,2013-08-21 12:51:00,
2013-08-21 07:55:00,71.3,71.0,30.10,SSE,156,0.0,1.0,99,0.00,,,0.00,40,Wunderground v.1.15,2013-08-21 12:55:00,
2013-08-21 08:00:00,71.5,71.2,30.10,SSE,166,0.0,0.0,99,0.00,,,0.00,42,Wunderground v.1.15,2013-08-21 13:00:00,
2013-08-21 08:05:00,71.9,71.6,30.10,SSE,166,1.0,2.0,99,0.00,,,0.00,46,Wunderground v.1.15,2013-08-21 13:05:00,
2013-08-21 08:10:00,72.1,71.8,30.10,South,189,1.0,1.0,99,0.00,,,0.00,46,Wunderground v.1.15,2013-08-21 13:10:00,
2013-08-21 08:15:00,72.4,72.1,30.10,South,189,0.0,1.0,99,0.00,,,0.00,47,Wunderground v.1.15,2013-08-21 13:15:00,
2013-08-21 08:20:00,72.6,72.3,30.10,South,188,0.0,0.0,99,0.00,,,0.00,49,Wunderground v.1.15,2013-08-21 13:20:00,
2013-08-21 08:25:00,72.9,72.3,30.11,SW,216,0.0,2.0,98,0.00,,,0.00,54,Wunderground v.1.15,2013-08-21 13:25:00,
2013-08-21 08:30:00,73.2,72.6,30.11,SW,216,0.0,1.0,98,0.00,,,0.00,51,Wunderground v.1.15,2013-08-21 13:30:00,
2013-08-21 08:35:00,73.6,72.7,30.10,SSW,199,0.0,2.0,97,0.00,,,0.00,60,Wunderground v.1.15,2013-08-21 13:35:00,
2013-08-21 08:40:00,74.0,73.1,30.11,South,178,0.0,1.0,97,0.00,,,0.00,65,Wunderground v.1.15,2013-08-21 13:40:00,
2013-08-21 08:45:00,74.3,73.1,30.11,SE,140,2.0,3.0,96,0.00,,,0.00,60,Wunderground v.1.15,2013-08-21 13:45:00,
2013-08-21 08:50:00,74.7,72.9,30.11,SSW,202,0.0,2.0,94,0.00,,,0.00,62,Wunderground v.1.15,2013-08-21 13:50:00,
2013-08-21 08:55:00,75.0,73.2,30.11,SSE,159,1.0,2.0,94,0.00,,,0.00,109,Wunderground v.1.15,2013-08-21 13:55:00,
2013-08-21 09:00:00,75.3,73.5,30.11,SSE,164,0.0,1.0,94,0.00,,,0.00,116,Wunderground v.1.15,2013-08-21 14:00:00,
2013-08-21 09:05:00,75.7,73.5,30.11,SSE,165,0.0,1.0,93,0.00,,,0.00,343,Wunderground v.1.15,2013-08-21 14:05:00,
2013-08-21 09:10:00,76.0,73.8,30.10,SW,235,0.0,1.0,93,0.00,,,0.00,107,Wunderground v.1.15,2013-08-21 14:10:00,
2013-08-21 09:15:00,76.2,73.7,30.11,SW,221,0.0,2.0,92,0.00,,,0.00,74,Wunderground v.1.15,2013-08-21 14:15:00,
2013-08-21 09:20:00,76.6,74.1,30.11,SSE,150,3.0,3.0,92,0.00,,,0.00,77,Wunderground v.1.15,2013-08-21 14:20:00,
2013-08-21 09:25:00,77.0,73.8,30.11,SSE,158,0.0,3.0,90,0.00,,,0.00,95,Wunderground v.1.15,2013-08-21 14:25:00,
2013-08-21 09:30:00,77.4,74.2,30.11,SSW,206,1.0,1.0,90,0.00,,,0.00,111,Wunderground v.1.15,2013-08-21 14:30:00,
2013-08-21 09:35:00,77.8,74.0,30.11,ESE,120,2.0,3.0,88,0.00,,,0.00,113,Wunderground v.1.15,2013-08-21 14:35:00,
2013-08-21 09:40:00,78.2,75.0,30.11,WSW,238,0.0,1.0,90,0.00,,,0.00,111,Wunderground v.1.15,2013-08-21 14:40:00,
2013-08-21 09:45:00,78.4,74.5,30.11,West,277,2.0,3.0,88,0.00,,,0.00,135,Wunderground v.1.15,2013-08-21 14:45:00,
2013-08-21 09:50:00,78.7,74.8,30.11,South,191,1.0,2.0,88,0.00,,,0.00,564,Wunderground v.1.15,2013-08-21 14:50:00,
2013-08-21 09:55:00,79.0,74.1,30.11,West,260,2.0,4.0,85,0.00,,,0.00,580,Wunderground v.1.15,2013-08-21 14:55:00,
2013-08-21 10:00:00,79.3,74.7,30.11,NNW,336,3.0,3.0,86,0.00,,,0.00,605,Wunderground v.1.15,2013-08-21 15:00:00,
2013-08-21 10:05:00,79.8,74.9,30.11,WNW,285,3.0,5.0,85,0.00,,,0.00,613,Wunderground v.1.15,2013-08-21 15:05:00,
2013-08-21 10:10:00,80.1,74.8,30.11,WNW,300,2.0,2.0,84,0.00,,,0.00,631,Wunderground v.1.15,2013-08-21 15:10:00,
2013-08-21 10:15:00,80.5,75.2,30.11,WNW,301,2.0,5.0,84,0.00,,,0.00,635,Wunderground v.1.15,2013-08-21 15:15:00,
2013-08-21 10:20:00,81.0,75.7,30.11,NNW,328,2.0,3.0,84,0.00,,,0.00,668,Wunderground v.1.15,2013-08-21 15:20:00,
2013-08-21 10:25:00,81.5,74.7,30.11,NNW,343,2.0,5.0,80,0.00,,,0.00,670,Wunderground v.1.15,2013-08-21 15:25:00,
2013-08-21 10:30:00,81.8,74.6,30.11,WNW,294,2.0,3.0,79,0.00,,,0.00,696,Wunderground v.1.15,2013-08-21 15:30:00,
2013-08-21 10:35:00,82.0,75.2,30.11,NNW,333,2.0,4.0,80,0.00,,,0.00,696,Wunderground v.1.15,2013-08-21 15:35:00,
2013-08-21 10:40:00,82.3,75.9,30.11,NW,320,4.0,4.0,81,0.00,,,0.00,719,Wunderground v.1.15,2013-08-21 15:40:00,
2013-08-21 10:45:00,82.5,74.9,30.11,NNW,328,2.0,6.0,78,0.00,,,0.00,714,Wunderground v.1.15,2013-08-21 15:45:00,
2013-08-21 10:50:00,82.5,75.7,30.11,NW,311,5.0,7.0,80,0.00,,,0.00,747,Wunderground v.1.15,2013-08-21 15:50:00,
2013-08-21 10:55:00,82.7,75.9,30.11,NNW,344,2.0,7.0,80,0.00,,,0.00,765,Wunderground v.1.15,2013-08-21 15:55:00,
2013-08-21 11:00:00,83.0,75.4,30.11,WSW,258,4.0,5.0,78,0.00,,,0.00,779,Wunderground v.1.15,2013-08-21 16:00:00,
2013-08-21 11:05:00,83.2,75.2,30.11,West,279,4.0,6.0,77,0.00,,,0.00,795,Wunderground v.1.15,2013-08-21 16:05:00,
2013-08-21 11:10:00,83.4,75.4,30.11,NW,314,1.0,3.0,77,0.00,,,0.00,823,Wunderground v.1.15,2013-08-21 16:10:00,
2013-08-21 11:15:00,83.7,75.3,30.10,North,355,3.0,4.0,76,0.00,,,0.00,830,Wunderground v.1.15,2013-08-21 16:15:00,
2013-08-21 11:20:00,83.8,74.6,30.10,NNW,345,5.0,5.0,74,0.00,,,0.00,888,Wunderground v.1.15,2013-08-21 16:20:00,
2013-08-21 11:25:00,83.4,74.6,30.10,NNW,342,1.0,5.0,75,0.00,,,0.00,227,Wunderground v.1.15,2013-08-21 16:25:00,
2013-08-21 11:30:00,83.3,74.5,30.10,NW,326,2.0,3.0,75,0.00,,,0.00,895,Wunderground v.1.15,2013-08-21 16:30:00,
2013-08-21 11:35:00,83.2,73.2,30.10,NW,310,3.0,5.0,72,0.00,,,0.00,123,Wunderground v.1.15,2013-08-21 16:35:00,
2013-08-21 11:40:00,83.4,74.2,30.10,NNW,328,2.0,5.0,74,0.00,,,0.00,854,Wunderground v.1.15,2013-08-21 16:40:00,
2013-08-21 11:45:00,84.0,74.8,30.10,WSW,242,1.0,5.0,74,0.00,,,0.00,882,Wunderground v.1.15,2013-08-21 16:45:00,
2013-08-21 11:50:00,84.6,75.0,30.10,WNW,296,2.0,3.0,73,0.00,,,0.00,940,Wunderground v.1.15,2013-08-21 16:50:00,
2013-08-21 11:55:00,84.8,74.3,30.10,WNW,292,1.0,6.0,71,0.00,,,0.00,265,Wunderground v.1.15,2013-08-21 16:55:00,
2013-08-21 12:00:00,84.9,74.9,30.10,NW,306,3.0,3.0,72,0.00,,,0.00,953,Wunderground v.1.15,2013-08-21 17:00:00,
2013-08-21 12:05:00,85.3,74.8,30.10,NW,314,3.0,6.0,71,0.00,,,0.00,990,Wunderground v.1.15,2013-08-21 17:05:00,
2013-08-21 12:10:00,85.2,74.3,30.09,NNW,329,3.0,4.0,70,0.00,,,0.00,134,Wunderground v.1.15,2013-08-21 17:10:00,
2013-08-21 12:15:00,84.2,74.2,30.10,WNW,291,2.0,6.0,72,0.00,,,0.00,114,Wunderground v.1.15,2013-08-21 17:15:00,
2013-08-21 12:20:00,83.8,74.2,30.09,WNW,298,2.0,3.0,73,0.00,,,0.00,933,Wunderground v.1.15,2013-08-21 17:20:00,
2013-08-21 12:25:00,84.2,72.9,30.09,NW,308,0.0,3.0,69,0.00,,,0.00,947,Wunderground v.1.15,2013-08-21 17:25:00,
2013-08-21 12:30:00,84.7,74.3,30.09,NNW,335,1.0,3.0,71,0.00,,,0.00,1007,Wunderground v.1.15,2013-08-21 17:30:00,
2013-08-21 12:35:00,84.8,74.3,30.09,NW,320,5.0,7.0,71,0.00,,,0.00,195,Wunderground v.1.15,2013-08-21 17:35:00,
2013-08-21 12:40:00,84.7,74.7,30.09,WNW,298,2.0,3.0,72,0.00,,,0.00,965,Wunderground v.1.15,2013-08-21 17:40:00,
2013-08-21 12:45:00,85.2,74.3,30.09,WNW,303,3.0,5.0,70,0.00,,,0.00,949,Wunderground v.1.15,2013-08-21 17:45:00,
2013-08-21 12:50:00,85.8,74.9,30.08,NW,326,3.0,4.0,70,0.00,,,0.00,940,Wunderground v.1.15,2013-08-21 17:50:00,
2013-08-21 12:55:00,85.4,73.6,30.08,NNW,327,4.0,7.0,68,0.00,,,0.00,144,Wunderground v.1.15,2013-08-21 17:55:00,
2013-08-21 13:00:00,84.7,73.0,30.08,NW,319,0.0,3.0,68,0.00,,,0.00,149,Wunderground v.1.15,2013-08-21 18:00:00,
2013-08-21 13:05:00,84.8,71.3,30.08,NW,319,0.0,3.0,64,0.00,,,0.00,942,Wunderground v.1.15,2013-08-21 18:05:00,
2013-08-21 13:10:00,85.4,73.2,30.08,SSE,159,0.0,1.0,67,0.00,,,0.00,958,Wunderground v.1.15,2013-08-21 18:10:00,
2013-08-21 13:15:00,86.0,73.8,30.08,NW,318,2.0,3.0,67,0.00,,,0.00,1005,Wunderground v.1.15,2013-08-21 18:15:00,
2013-08-21 13:20:00,85.7,73.0,30.08,NNW,335,3.0,4.0,66,0.00,,,0.00,171,Wunderground v.1.15,2013-08-21 18:20:00,
2013-08-21 13:25:00,85.2,74.3,30.08,NNW,330,2.0,4.0,70,0.00,,,0.00,220,Wunderground v.1.15,2013-08-21 18:25:00,
2013-08-21 13:30:00,85.5,71.9,30.08,NNW,338,0.0,2.0,64,0.00,,,0.00,937,Wunderground v.1.15,2013-08-21 18:30:00,
2013-08-21 13:35:00,86.1,71.6,30.08,NW,325,0.0,4.0,62,0.00,,,0.00,932,Wunderground v.1.15,2013-08-21 18:35:00,
2013-08-21 13:40:00,86.6,73.4,30.07,North,350,3.0,3.0,65,0.00,,,0.00,970,Wunderground v.1.15,2013-08-21 18:40:00,
2013-08-21 13:45:00,86.3,73.6,30.07,NNW,342,3.0,5.0,66,0.00,,,0.00,171,Wunderground v.1.15,2013-08-21 18:45:00,
2013-08-21 13:50:00,85.5,73.3,30.07,NNW,331,3.0,5.0,67,0.00,,,0.00,243,Wunderground v.1.15,2013-08-21 18:50:00,
2013-08-21 13:54:00,85.4,73.2,30.07,NNW,336,0.0,3.0,67,0.00,,,0.00,893,Wunderground v.1.15,2013-08-21 18:54:00,
2013-08-21 13:59:00,85.7,72.1,30.07,NNW,337,0.0,3.0,64,0.00,,,0.00,895,Wunderground v.1.15,2013-08-21 18:59:00,
2013-08-21 14:04:00,85.9,72.3,30.07,NNW,328,0.0,1.0,64,0.00,,,0.00,188,Wunderground v.1.15,2013-08-21 19:04:00,
2013-08-21 14:09:00,85.8,72.7,30.08,WNW,284,0.0,1.0,65,0.00,,,0.00,357,Wunderground v.1.15,2013-08-21 19:09:00,
2013-08-21 14:14:00,85.6,72.9,30.08,NW,321,0.0,0.0,66,0.00,,,0.00,192,Wunderground v.1.15,2013-08-21 19:14:00,
2013-08-21 14:19:00,85.6,72.5,30.07,WNW,285,0.0,0.0,65,0.00,,,0.00,250,Wunderground v.1.15,2013-08-21 19:19:00,
2013-08-21 14:24:00,86.0,73.8,30.07,WNW,285,0.0,0.0,67,0.00,,,0.00,893,Wunderground v.1.15,2013-08-21 19:24:00,
2013-08-21 14:29:00,86.9,72.8,30.07,West,267,0.0,0.0,63,0.00,,,0.00,882,Wunderground v.1.15,2013-08-21 19:29:00,
2013-08-21 14:34:00,87.7,73.5,30.07,NW,325,0.0,0.0,63,0.00,,,0.00,835,Wunderground v.1.15,2013-08-21 19:34:00,
2013-08-21 14:39:00,87.4,72.8,30.07,WNW,295,0.0,0.0,62,0.00,,,0.00,241,Wunderground v.1.15,2013-08-21 19:39:00,
2013-08-21 14:44:00,86.8,73.6,30.07,NNW,340,0.0,0.0,65,0.00,,,0.00,889,Wunderground v.1.15,2013-08-21 19:44:00,
2013-08-21 14:49:00,87.0,73.8,30.07,NW,308,0.0,0.0,65,0.00,,,0.00,807,Wunderground v.1.15,2013-08-21 19:49:00,
2013-08-21 14:54:00,87.0,71.9,30.06,NW,305,2.0,5.0,61,0.00,,,0.00,188,Wunderground v.1.15,2013-08-21 19:54:00,
2013-08-21 14:59:00,86.7,74.0,30.06,NNW,345,2.0,5.0,66,0.00,,,0.00,200,Wunderground v.1.15,2013-08-21 19:59:00,
2013-08-21 15:04:00,86.5,73.8,30.06,NNW,340,1.0,3.0,66,0.00,,,0.00,193,Wunderground v.1.15,2013-08-21 20:04:00,
2013-08-21 15:09:00,86.3,74.0,30.06,NW,325,2.0,4.0,67,0.00,,,0.00,782,Wunderground v.1.15,2013-08-21 20:09:00,
2013-08-21 15:14:00,86.3,74.0,30.06,NW,321,0.0,3.0,67,0.00,,,0.00,735,Wunderground v.1.15,2013-08-21 20:14:00,
2013-08-21 15:19:00,86.5,71.9,30.06,NW,307,1.0,3.0,62,0.00,,,0.00,301,Wunderground v.1.15,2013-08-21 20:19:00,
2013-08-21 15:24:00,86.7,72.1,30.06,WNW,283,0.0,2.0,62,0.00,,,0.00,729,Wunderground v.1.15,2013-08-21 20:24:00,
2013-08-21 15:29:00,87.2,74.0,30.05,West,279,1.0,2.0,65,0.00,,,0.00,729,Wunderground v.1.15,2013-08-21 20:29:00,
2013-08-21 15:34:00,87.5,73.3,30.05,SSE,155,0.0,2.0,63,0.00,,,0.00,153,Wunderground v.1.15,2013-08-21 20:34:00,
2013-08-21 15:39:00,87.7,74.0,30.05,WSW,241,0.0,2.0,64,0.00,,,0.00,710,Wunderground v.1.15,2013-08-21 20:39:00,
2013-08-21 15:44:00,88.3,75.0,30.05,South,177,1.0,2.0,65,0.00,,,0.00,682,Wunderground v.1.15,2013-08-21 20:44:00,
2013-08-21 15:49:00,88.2,73.0,30.05,North,355,0.0,4.0,61,0.00,,,0.00,663,Wunderground v.1.15,2013-08-21 20:49:00,
2013-08-21 15:54:00,87.8,73.6,30.05,NNW,344,0.0,5.0,63,0.00,,,0.00,650,Wunderground v.1.15,2013-08-21 20:54:00,
2013-08-21 15:59:00,87.7,72.6,30.05,WNW,290,0.0,5.0,61,0.00,,,0.00,635,Wunderground v.1.15,2013-08-21 20:59:00,
2013-08-21 16:04:00,87.5,72.9,30.05,NW,325,1.0,4.0,62,0.00,,,0.00,621,Wunderground v.1.15,2013-08-21 21:04:00,
2013-08-21 16:09:00,87.7,73.1,30.05,NNW,340,0.0,4.0,62,0.00,,,0.00,526,Wunderground v.1.15,2013-08-21 21:09:00,
2013-08-21 16:14:00,87.0,72.4,30.04,WNW,302,0.0,1.0,62,0.00,,,0.00,102,Wunderground v.1.15,2013-08-21 21:14:00,
2013-08-21 16:19:00,86.8,73.6,30.04,WNW,302,0.0,1.0,65,0.00,,,0.00,624,Wunderground v.1.15,2013-08-21 21:19:00,
2013-08-21 16:24:00,87.2,73.1,30.04,NNW,329,0.0,0.0,63,0.00,,,0.00,564,Wunderground v.1.15,2013-08-21 21:24:00,
2013-08-21 16:29:00,87.7,74.5,30.04,NNW,331,0.0,0.0,65,0.00,,,0.00,545,Wunderground v.1.15,2013-08-21 21:29:00,
2013-08-21 16:34:00,88.1,72.5,30.03,NW,308,1.0,4.0,60,0.00,,,0.00,529,Wunderground v.1.15,2013-08-21 21:34:00,
2013-08-21 16:39:00,88.3,73.1,30.03,NNW,330,2.0,4.0,61,0.00,,,0.00,504,Wunderground v.1.15,2013-08-21 21:39:00,
2013-08-21 16:44:00,88.2,72.6,30.03,NW,325,0.0,3.0,60,0.00,,,0.00,480,Wunderground v.1.15,2013-08-21 21:44:00,
2013-08-21 16:49:00,88.4,73.2,30.03,WNW,284,0.0,3.0,61,0.00,,,0.00,478,Wunderground v.1.15,2013-08-21 21:49:00,
2013-08-21 16:54:00,88.9,73.7,30.03,SW,230,0.0,4.0,61,0.00,,,0.00,469,Wunderground v.1.15,2013-08-21 21:54:00,
2013-08-21 16:59:00,89.1,72.9,30.03,WNW,298,0.0,4.0,59,0.00,,,0.00,452,Wunderground v.1.15,2013-08-21 21:59:00,
2013-08-21 17:04:00,89.2,72.0,30.03,West,280,0.0,1.0,57,0.00,,,0.00,432,Wunderground v.1.15,2013-08-21 22:04:00,
2013-08-21 17:09:00,89.1,72.9,30.03,West,280,0.0,1.0,59,0.00,,,0.00,411,Wunderground v.1.15,2013-08-21 22:09:00,
2013-08-21 17:14:00,89.3,73.1,30.03,West,280,0.0,0.0,59,0.00,,,0.00,397,Wunderground v.1.15,2013-08-21 22:14:00,
2013-08-21 17:19:00,89.2,72.5,30.03,NW,307,0.0,0.0,58,0.00,,,0.00,380,Wunderground v.1.15,2013-08-21 22:19:00,
2013-08-21 17:24:00,89.1,72.9,30.03,NW,307,0.0,0.0,59,0.00,,,0.00,364,Wunderground v.1.15,2013-08-21 22:24:00,
2013-08-21 17:29:00,89.1,74.4,30.02,SE,130,0.0,0.0,62,0.00,,,0.00,348,Wunderground v.1.15,2013-08-21 22:29:00,
2013-08-21 17:34:00,88.9,71.2,30.02,West,263,0.0,0.0,56,0.00,,,0.00,330,Wunderground v.1.15,2013-08-21 22:34:00,
2013-08-21 17:39:00,89.3,73.6,30.02,West,263,0.0,0.0,60,0.00,,,0.00,315,Wunderground v.1.15,2013-08-21 22:39:00,
2013-08-21 17:44:00,89.5,72.8,30.02,NW,322,0.0,0.0,58,0.00,,,0.00,297,Wunderground v.1.15,2013-08-21 22:44:00,
2013-08-21 17:50:00,89.3,74.1,30.02,NW,322,0.0,0.0,61,0.00,,,0.00,279,Wunderground v.1.15,2013-08-21 22:50:00,
2013-08-21 17:55:00,89.2,73.5,30.02,NW,322,0.0,0.0,60,0.00,,,0.00,262,Wunderground v.1.15,2013-08-21 22:55:00,
2013-08-21 18:00:00,89.3,72.6,30.02,NW,322,0.0,0.0,58,0.00,,,0.00,244,Wunderground v.1.15,2013-08-21 23:00:00,
2013-08-21 18:05:00,89.5,73.8,30.02,NW,322,0.0,0.0,60,0.00,,,0.00,230,Wunderground v.1.15,2013-08-21 23:05:00,
2013-08-21 18:10:00,89.6,75.8,30.02,NW,322,0.0,0.0,64,0.00,,,0.00,213,Wunderground v.1.15,2013-08-21 23:10:00,
2013-08-21 18:15:00,89.7,75.9,30.02,NW,322,0.0,0.0,64,0.00,,,0.00,195,Wunderground v.1.15,2013-08-21 23:15:00,
2013-08-21 18:20:00,89.6,74.9,30.02,NW,322,0.0,0.0,62,0.00,,,0.00,176,Wunderground v.1.15,2013-08-21 23:20:00,
2013-08-21 18:25:00,89.3,75.5,30.02,NW,322,0.0,0.0,64,0.00,,,0.00,162,Wunderground v.1.15,2013-08-21 23:25:00,
2013-08-21 18:30:00,89.3,75.0,30.02,NW,322,0.0,0.0,63,0.00,,,0.00,142,Wunderground v.1.15,2013-08-21 23:30:00,
2013-08-21 18:35:00,88.9,74.2,30.02,NW,322,0.0,0.0,62,0.00,,,0.00,123,Wunderground v.1.15,2013-08-21 23:35:00,
2013-08-21 18:40:00,88.6,75.8,30.02,NW,322,0.0,0.0,66,0.00,,,0.00,105,Wunderground v.1.15,2013-08-21 23:40:00,
2013-08-21 18:45:00,88.2,75.9,30.02,NW,322,0.0,0.0,67,0.00,,,0.00,90,Wunderground v.1.15,2013-08-21 23:45:00,
2013-08-21 18:50:00,87.3,75.4,30.02,NW,322,0.0,0.0,68,0.00,,,0.00,74,Wunderground v.1.15,2013-08-21 23:50:00,
2013-08-21 18:55:00,86.3,75.4,30.03,NW,322,0.0,0.0,70,0.00,,,0.00,62,Wunderground v.1.15,2013-08-21 23:55:00,
2013-08-21 19:00:00,85.6,75.5,30.03,NW,322,0.0,0.0,72,0.00,,,0.00,49,Wunderground v.1.15,2013-08-22 00:00:00,
2013-08-21 19:05:00,85.3,76.1,30.03,NW,322,0.0,0.0,74,0.00,,,0.00,37,Wunderground v.1.15,2013-08-22 00:05:00,
2013-08-21 19:10:00,84.9,75.7,30.03,NW,322,0.0,0.0,74,0.00,,,0.00,28,Wunderground v.1.15,2013-08-22 00:10:00,
2013-08-21 19:15:00,84.2,75.8,30.03,NW,322,0.0,1.0,76,0.00,,,0.00,19,Wunderground v.1.15,2013-08-22 00:15:00,
2013-08-21 19:20:00,83.5,75.9,30.03,NW,322,0.0,0.0,78,0.00,,,0.00,14,Wunderground v.1.15,2013-08-22 00:20:00,
2013-08-21 19:25:00,82.7,75.5,30.03,NW,322,0.0,0.0,79,0.00,,,0.00,11,Wunderground v.1.15,2013-08-22 00:25:00,
2013-08-21 19:30:00,81.8,75.0,30.03,NW,322,0.0,0.0,80,0.00,,,0.00,5,Wunderground v.1.15,2013-08-22 00:30:00,
2013-08-21 19:35:00,81.2,74.8,30.03,NW,322,0.0,0.0,81,0.00,,,0.00,0,Wunderground v.1.15,2013-08-22 00:35:00,
2013-08-21 19:40:00,80.7,74.7,30.03,NW,322,0.0,0.0,82,0.00,,,0.00,0,Wunderground v.1.15,2013-08-22 00:40:00,
2013-08-21 19:45:00,80.1,74.5,30.03,NW,322,0.0,0.0,83,0.00,,,0.00,0,Wunderground v.1.15,2013-08-22 00:45:00,
2013-08-21 19:50:00,79.5,74.2,30.03,NW,322,0.0,0.0,84,0.00,,,0.00,0,Wunderground v.1.15,2013-08-22 00:50:00,
2013-08-21 19:55:00,78.8,74.3,30.03,NW,322,0.0,0.0,86,0.00,,,0.00,0,Wunderground v.1.15,2013-08-22 00:55:00,
2013-08-21 20:00:00,78.2,74.0,30.03,NW,322,0.0,0.0,87,0.00,,,0.00,0,Wunderground v.1.15,2013-08-22 01:00:00,